createdAt,value
2019-05-03T00:02:32.307Z,84.51
2019-05-03T00:05:19.352Z,84.96
2019-05-03T00:07:52.582Z,84.87
2019-05-03T00:10:26.961Z,85.13
2019-05-03T00:13:01.927Z,85.08
2019-05-03T00:15:53.388Z,85.34
2019-05-03T00:18:23.642Z,85.17
2019-05-03T00:20:53.933Z,86.04
2019-05-03T00:23:26.498Z,86.91
2019-05-03T00:25:57.720Z,87.80
2019-05-03T00:28:27.818Z,88.21
2019-05-03T00:30:57.998Z,88.29
2019-05-03T00:33:37.114Z,88.58
2019-05-03T00:36:22.352Z,88.49
2019-05-03T00:39:01.970Z,88.60
2019-05-03T00:41:42.593Z,89.01
2019-05-03T00:44:22.392Z,88.24
2019-05-03T00:46:56.780Z,88.26
2019-05-03T00:49:26.988Z,88.21
2019-05-03T00:51:59.703Z,88.25
2019-05-03T00:54:29.453Z,88.12
2019-05-03T00:56:59.627Z,87.96
2019-05-03T00:59:33.875Z,87.45
2019-05-03T01:02:07.079Z,86.74
2019-05-03T01:04:40.321Z,87.40
2019-05-03T01:07:11.700Z,86.23
2019-05-03T01:09:49.473Z,86.93
2019-05-03T01:12:21.970Z,85.91
2019-05-03T01:15:08.136Z,86.28
2019-05-03T01:17:38.378Z,86.26
2019-05-03T01:20:13.662Z,86.05
2019-05-03T01:22:43.008Z,86.78
2019-05-03T01:25:13.218Z,86.62
2019-05-03T01:27:43.461Z,85.42
2019-05-03T01:30:17.693Z,84.69
2019-05-03T01:32:48.013Z,83.52
2019-05-03T01:35:27.085Z,82.66
2019-05-03T01:38:09.272Z,82.96
2019-05-03T01:40:39.518Z,81.04
2019-05-03T01:43:11.564Z,81.35
2019-05-03T01:45:42.485Z,80.22
2019-05-03T01:48:34.867Z,80.40
2019-05-03T01:51:36.377Z,80.92
2019-05-03T01:54:06.628Z,78.75
2019-05-03T01:56:37.007Z,78.85
2019-05-03T01:59:07.242Z,78.84
2019-05-03T02:01:58.738Z,78.51
2019-05-03T02:04:36.130Z,80.28
2019-05-03T02:07:11.688Z,78.46
2019-05-03T02:09:44.196Z,78.10
2019-05-03T02:12:14.386Z,77.99
2019-05-03T02:14:44.583Z,77.90
2019-05-03T02:17:14.690Z,78.08
2019-05-03T02:19:47.994Z,78.21
2019-05-03T02:22:22.614Z,78.45
2019-05-03T02:24:56.675Z,76.58
2019-05-03T02:27:26.845Z,78.66
2019-05-03T02:29:57.028Z,77.45
2019-05-03T02:32:27.239Z,77.48
2019-05-03T02:34:57.292Z,79.40
2019-05-03T02:37:27.514Z,80.77
2019-05-03T02:39:57.801Z,82.42
2019-05-03T02:42:27.919Z,81.88
2019-05-03T02:44:59.879Z,82.55
2019-05-03T02:47:47.036Z,82.51
2019-05-03T02:50:18.867Z,82.59
2019-05-03T02:52:48.999Z,82.45
2019-05-03T02:55:18.990Z,82.36
2019-05-03T02:57:56.056Z,83.17
2019-05-03T03:01:00.894Z,84.87
2019-05-03T03:03:32.267Z,83.31
2019-05-03T03:06:07.163Z,82.69
2019-05-03T03:08:38.982Z,83.13
2019-05-03T03:11:09.506Z,82.54
2019-05-03T03:13:45.773Z,83.35
2019-05-03T03:16:20.512Z,83.32
2019-05-03T03:18:49.857Z,83.05
2019-05-03T03:21:25.962Z,82.92
2019-05-03T03:24:07.386Z,83.76
2019-05-03T03:26:42.788Z,80.89
2019-05-03T03:29:11.917Z,79.65
2019-05-03T03:32:10.244Z,81.55
2019-05-03T03:34:54.631Z,80.67
2019-05-03T03:37:18.827Z,81.52
2019-05-03T03:39:49.596Z,79.87
2019-05-03T03:42:20.219Z,78.82
2019-05-03T03:44:50.666Z,77.82
2019-05-03T03:47:21.561Z,78.26
2019-05-03T03:49:52.164Z,79.23
2019-05-03T03:52:26.631Z,78.95
2019-05-03T03:54:58.236Z,79.38
2019-05-03T03:57:28.700Z,80.46
2019-05-03T03:59:59.504Z,79.88
2019-05-03T04:02:29.833Z,78.35
2019-05-03T04:04:59.869Z,77.50
2019-05-03T04:07:36.104Z,78.18
2019-05-03T04:10:08.409Z,77.87
2019-05-03T04:12:39.950Z,78.88
2019-05-03T04:15:28.237Z,78.40
2019-05-03T04:18:16.975Z,78.58
2019-05-03T04:20:49.947Z,79.27
2019-05-03T04:23:20.137Z,80.14
2019-05-03T04:25:50.339Z,81.89
2019-05-03T04:28:21.593Z,81.21
2019-05-03T04:30:51.755Z,81.19
2019-05-03T04:33:27.267Z,81.72
2019-05-03T04:35:57.006Z,82.36
2019-05-03T04:38:27.213Z,82.83
2019-05-03T04:40:58.734Z,82.12
2019-05-03T04:43:30.218Z,82.19
2019-05-03T04:46:16.189Z,81.66
2019-05-03T04:48:45.045Z,81.80
2019-05-03T04:51:16.675Z,81.00
2019-05-03T04:53:52.864Z,78.78
2019-05-03T04:56:25.993Z,76.02
2019-05-03T04:58:57.393Z,77.05
2019-05-03T05:01:27.425Z,74.25
2019-05-03T05:03:57.457Z,73.79
2019-05-03T05:06:27.576Z,76.22
2019-05-03T05:08:59.264Z,75.24
2019-05-03T05:11:31.159Z,75.62
2019-05-03T05:14:06.417Z,76.06
2019-05-03T05:16:39.631Z,76.50
2019-05-03T05:19:12.102Z,77.71
2019-05-03T05:21:48.069Z,77.57
2019-05-03T05:24:18.194Z,78.22
2019-05-03T05:27:07.483Z,77.90
2019-05-03T05:29:38.371Z,78.88
2019-05-03T05:32:09.632Z,79.15
2019-05-03T05:34:40.828Z,78.78
2019-05-03T05:37:10.865Z,79.38
2019-05-03T05:39:40.970Z,79.95
2019-05-03T05:42:25.202Z,80.10
2019-05-03T05:44:58.523Z,79.32
2019-05-03T05:48:01.070Z,78.18
2019-05-03T05:50:34.942Z,78.56
2019-05-03T05:53:05.278Z,77.37
2019-05-03T05:56:09.444Z,76.54
2019-05-03T05:59:14.848Z,75.53
2019-05-03T06:02:09.236Z,76.34
2019-05-03T06:04:40.803Z,75.64
2019-05-03T06:07:27.460Z,75.78
2019-05-03T06:10:06.711Z,75.06
2019-05-03T06:12:58.718Z,76.58
2019-05-03T06:15:51.916Z,74.36
2019-05-03T06:18:32.265Z,75.52
2019-05-03T06:21:09.358Z,76.62
2019-05-03T06:23:49.850Z,77.89
2019-05-03T06:26:34.875Z,77.28
2019-05-03T06:29:05.140Z,76.68
2019-05-03T06:31:55.051Z,75.64
2019-05-03T06:34:27.351Z,75.58
2019-05-03T06:36:59.209Z,73.44
2019-05-03T06:39:29.319Z,69.62
2019-05-03T06:41:59.323Z,70.62
2019-05-03T06:44:29.357Z,71.12
2019-05-03T06:47:01.165Z,69.76
2019-05-03T06:49:32.018Z,68.87
2019-05-03T06:52:02.013Z,69.44
2019-05-03T06:54:32.073Z,71.83
2019-05-03T06:57:07.786Z,72.28
2019-05-03T06:59:42.515Z,71.79
2019-05-03T07:02:20.675Z,71.67
2019-05-03T07:04:52.289Z,70.48
2019-05-03T07:07:31.444Z,70.16
2019-05-03T07:10:15.236Z,68.36
2019-05-03T07:13:05.017Z,67.35
2019-05-03T07:15:35.357Z,67.53
2019-05-03T07:18:15.907Z,66.24
2019-05-03T07:20:56.925Z,64.83
2019-05-03T07:23:26.219Z,65.76
2019-05-03T07:25:56.381Z,65.21
2019-05-03T07:28:26.453Z,65.92
2019-05-03T07:30:56.451Z,63.17
2019-05-03T07:33:31.528Z,61.86
2019-05-03T07:36:01.531Z,62.43
2019-05-03T07:38:31.619Z,61.96
2019-05-03T07:41:05.271Z,63.44
2019-05-03T07:43:37.003Z,60.65
2019-05-03T07:46:06.991Z,59.86
2019-05-03T07:48:40.587Z,60.30
2019-05-03T07:51:10.620Z,63.20
2019-05-03T07:53:40.698Z,60.33
2019-05-03T07:56:14.959Z,61.62
2019-05-03T07:58:59.476Z,61.56
2019-05-03T08:01:25.141Z,62.59
2019-05-03T08:03:55.325Z,62.59
2019-05-03T08:06:25.330Z,63.60
2019-05-03T08:08:55.402Z,62.29
2019-05-03T08:11:25.419Z,61.49
2019-05-03T08:13:55.411Z,61.48
2019-05-03T08:16:25.473Z,60.90
2019-05-03T08:18:57.148Z,59.85
2019-05-03T08:21:27.120Z,57.57
2019-05-03T08:23:57.185Z,55.92
2019-05-03T08:26:27.168Z,57.14
2019-05-03T08:28:57.194Z,55.95
2019-05-03T08:31:41.516Z,57.66
2019-05-03T08:34:29.564Z,57.56
2019-05-03T08:37:07.651Z,57.11
2019-05-03T08:39:37.666Z,56.38
2019-05-03T08:42:11.213Z,55.62
2019-05-03T08:44:41.358Z,56.00
2019-05-03T08:47:11.392Z,58.26
2019-05-03T08:49:41.472Z,55.95
2019-05-03T08:52:11.465Z,57.77
2019-05-03T08:54:41.572Z,58.96
2019-05-03T08:57:11.573Z,61.42
2019-05-03T08:59:41.535Z,59.42
2019-05-03T09:02:17.677Z,59.14
2019-05-03T09:04:45.934Z,64.08
2019-05-03T09:07:14.988Z,64.98
2019-05-03T09:10:05.282Z,65.09
2019-05-03T09:12:47.667Z,65.32
2019-05-03T09:15:17.693Z,63.95
2019-05-03T09:17:47.687Z,61.78
2019-05-03T09:20:17.734Z,60.84
2019-05-03T09:22:47.752Z,60.61
2019-05-03T09:25:17.805Z,58.15
2019-05-03T09:27:47.738Z,60.05
2019-05-03T09:30:18.189Z,59.40
2019-05-03T09:32:48.160Z,56.98
2019-05-03T09:35:29.816Z,59.17
2019-05-03T09:37:49.821Z,57.60
2019-05-03T09:40:19.883Z,55.32
2019-05-03T09:42:49.812Z,57.32
2019-05-03T09:45:19.832Z,58.27
2019-05-03T09:47:50.719Z,59.34
2019-05-03T09:50:20.728Z,59.73
2019-05-03T09:52:50.744Z,60.78
2019-05-03T09:55:26.373Z,60.56
2019-05-03T09:57:56.299Z,59.70
2019-05-03T10:00:26.307Z,57.56
2019-05-03T10:02:56.325Z,57.88
2019-05-03T10:05:26.410Z,56.05
2019-05-03T10:07:56.343Z,55.62
2019-05-03T10:10:26.337Z,55.16
2019-05-03T10:12:56.643Z,55.03
2019-05-03T10:15:40.373Z,55.39
2019-05-03T10:18:13.302Z,55.39
2019-05-03T10:20:44.637Z,56.32
2019-05-03T10:23:36.481Z,57.05
2019-05-03T10:26:06.535Z,61.37
2019-05-03T10:28:36.537Z,60.73
2019-05-03T10:31:07.849Z,60.38
2019-05-03T10:33:45.642Z,60.84
2019-05-03T10:36:16.550Z,60.04
2019-05-03T10:38:46.633Z,58.02
2019-05-03T10:41:16.660Z,57.53
2019-05-03T10:43:46.636Z,56.17
2019-05-03T10:46:16.668Z,55.99
2019-05-03T10:48:46.712Z,57.65
2019-05-03T10:51:16.696Z,58.40
2019-05-03T10:53:50.798Z,57.80
2019-05-03T10:56:29.424Z,56.86
2019-05-03T10:59:06.194Z,56.13
2019-05-03T11:01:54.508Z,55.49
2019-05-03T11:04:25.302Z,53.39
2019-05-03T11:06:55.324Z,51.50
2019-05-03T11:09:26.029Z,52.38
2019-05-03T11:11:56.053Z,53.71
2019-05-03T11:14:26.019Z,52.78
2019-05-03T11:17:14.946Z,54.60
2019-05-03T11:19:45.457Z,57.68
2019-05-03T11:22:15.688Z,62.38
2019-05-03T11:24:45.685Z,64.43
2019-05-03T11:27:31.812Z,63.54
2019-05-03T11:30:01.847Z,63.06
2019-05-03T11:32:37.988Z,62.09
2019-05-03T11:35:18.632Z,62.35
2019-05-03T11:37:52.619Z,58.99
2019-05-03T11:40:22.614Z,59.05
2019-05-03T11:42:55.376Z,57.57
2019-05-03T11:45:25.354Z,57.26
2019-05-03T11:47:55.379Z,57.03
2019-05-03T11:50:25.548Z,55.11
2019-05-03T11:52:55.550Z,55.13
2019-05-03T11:55:26.851Z,53.02
2019-05-03T11:57:57.017Z,53.22
2019-05-03T12:00:32.811Z,53.35
2019-05-03T12:03:11.608Z,53.58
2019-05-03T12:05:43.961Z,52.87
2019-05-03T12:08:14.745Z,53.54
2019-05-03T12:10:55.343Z,53.46
2019-05-03T12:13:25.511Z,53.52
2019-05-03T12:15:56.537Z,52.14
2019-05-03T12:18:27.969Z,53.15
2019-05-03T12:21:00.936Z,53.22
2019-05-03T12:23:32.307Z,55.10
2019-05-03T12:26:09.464Z,53.92
2019-05-03T12:28:35.441Z,53.62
2019-05-03T12:31:05.785Z,55.56
2019-05-03T12:33:35.900Z,56.05
2019-05-03T12:36:06.277Z,57.91
2019-05-03T12:38:36.339Z,56.94
2019-05-03T12:41:06.392Z,58.49
2019-05-03T12:43:36.404Z,57.52
2019-05-03T12:46:06.445Z,57.65
2019-05-03T12:48:36.475Z,57.96
2019-05-03T12:51:07.592Z,57.91
2019-05-03T12:53:37.981Z,58.13
2019-05-03T12:56:11.495Z,58.68
2019-05-03T12:59:01.734Z,60.29
2019-05-03T13:01:45.940Z,60.39
2019-05-03T13:04:25.002Z,59.82
2019-05-03T13:07:17.639Z,59.47
2019-05-03T13:09:47.597Z,57.72
2019-05-03T13:12:19.787Z,58.42
2019-05-03T13:14:49.776Z,57.92
2019-05-03T13:17:35.953Z,57.49
2019-05-03T13:20:10.794Z,59.28
2019-05-03T13:22:40.908Z,59.49
2019-05-03T13:25:11.185Z,60.02
2019-05-03T13:27:41.285Z,58.64
2019-05-03T13:30:11.519Z,57.54
2019-05-03T13:32:41.464Z,56.58
2019-05-03T13:35:11.884Z,56.63
2019-05-03T13:37:41.823Z,56.73
2019-05-03T13:40:12.501Z,57.24
2019-05-03T13:42:54.173Z,54.91
2019-05-03T13:45:14.231Z,55.60
2019-05-03T13:47:44.709Z,55.26
2019-05-03T13:50:15.245Z,56.79
2019-05-03T13:52:45.425Z,57.65
2019-05-03T13:55:15.451Z,56.87
2019-05-03T13:57:45.984Z,54.58
2019-05-03T14:00:17.303Z,53.15
2019-05-03T14:02:47.366Z,52.79
2019-05-03T14:05:17.399Z,50.03
2019-05-03T14:07:47.420Z,53.18
2019-05-03T14:10:17.687Z,53.00
2019-05-03T14:12:47.709Z,52.74
2019-05-03T14:15:17.739Z,54.13
2019-05-03T14:17:47.718Z,51.77
2019-05-03T14:20:30.149Z,52.23
2019-05-03T14:23:01.664Z,50.79
2019-05-03T14:25:31.736Z,50.67
2019-05-03T14:28:01.785Z,52.61
2019-05-03T14:30:31.723Z,51.62
2019-05-03T14:33:01.707Z,51.61
2019-05-03T14:35:34.527Z,55.18
2019-05-03T14:38:06.053Z,59.80
2019-05-03T14:40:36.311Z,63.08
2019-05-03T14:43:06.338Z,64.02
2019-05-03T14:45:36.274Z,66.57
2019-05-03T14:48:06.466Z,64.55
2019-05-03T14:50:37.474Z,63.97
2019-05-03T14:53:09.089Z,63.38
2019-05-03T14:55:45.391Z,62.52
2019-05-03T14:58:40.333Z,58.28
2019-05-03T15:01:18.163Z,56.53
2019-05-03T15:03:48.195Z,53.77
2019-05-03T15:06:18.195Z,52.29
2019-05-03T15:08:48.197Z,54.51
2019-05-03T15:11:18.227Z,53.21
2019-05-03T15:13:51.751Z,52.84
2019-05-03T15:16:21.793Z,53.00
2019-05-03T15:18:51.663Z,53.46
2019-05-03T15:21:25.214Z,56.05
2019-05-03T15:23:55.402Z,57.08
2019-05-03T15:26:26.362Z,58.15
2019-05-03T15:28:56.304Z,58.91
2019-05-03T15:31:26.724Z,60.12
2019-05-03T15:33:56.728Z,59.92
2019-05-03T15:36:27.576Z,61.41
2019-05-03T15:38:57.558Z,61.50
2019-05-03T15:41:35.241Z,62.01
2019-05-03T15:44:17.974Z,62.29
2019-05-03T15:46:55.456Z,62.27
2019-05-03T15:49:27.712Z,63.19
2019-05-03T15:51:58.372Z,61.82
2019-05-03T15:54:28.263Z,61.15
2019-05-03T15:56:59.325Z,62.27
2019-05-03T15:59:29.313Z,62.72
2019-05-03T16:02:00.935Z,63.86
2019-05-03T16:04:35.728Z,67.38
2019-05-03T16:07:06.931Z,69.72
2019-05-03T16:09:36.985Z,68.21
2019-05-03T16:12:07.001Z,68.49
2019-05-03T16:14:37.132Z,68.09
2019-05-03T16:17:07.152Z,67.65
2019-05-03T16:19:37.219Z,65.64
2019-05-03T16:22:07.189Z,65.26
2019-05-03T16:24:37.237Z,65.35
2019-05-03T16:27:26.646Z,65.99
2019-05-03T16:29:56.650Z,66.42
2019-05-03T16:32:26.731Z,66.75
2019-05-03T16:34:56.734Z,66.73
2019-05-03T16:37:26.721Z,67.53
2019-05-03T16:39:57.893Z,66.36
2019-05-03T16:42:27.888Z,66.79
2019-05-03T16:44:57.876Z,65.61
2019-05-03T16:47:28.938Z,65.76
2019-05-03T16:49:58.932Z,65.91
2019-05-03T16:52:28.974Z,66.82
2019-05-03T16:54:58.874Z,67.03
2019-05-03T16:57:28.989Z,67.55
2019-05-03T16:59:59.023Z,68.40
2019-05-03T17:02:29.041Z,68.85
2019-05-03T17:05:17.192Z,68.41
2019-05-03T17:07:53.167Z,68.22
2019-05-03T17:10:27.298Z,69.23
2019-05-03T17:12:57.312Z,70.24
2019-05-03T17:15:27.224Z,71.02
2019-05-03T17:17:58.032Z,71.65
2019-05-03T17:20:28.076Z,70.55
2019-05-03T17:22:58.206Z,71.36
2019-05-03T17:25:28.175Z,71.31
2019-05-03T17:27:58.124Z,72.09
2019-05-03T17:30:33.786Z,72.20
2019-05-03T17:32:59.970Z,72.56
2019-05-03T17:35:29.954Z,72.74
2019-05-03T17:37:59.935Z,72.93
2019-05-03T17:40:48.532Z,72.79
2019-05-03T17:43:24.361Z,72.34
2019-05-03T17:45:55.806Z,73.55
2019-05-03T17:48:25.934Z,72.71
2019-05-03T17:50:56.343Z,74.90
2019-05-03T17:53:54.993Z,75.83
2019-05-03T17:56:44.505Z,76.69
2019-05-03T17:59:20.392Z,77.98
2019-05-03T18:02:08.376Z,77.53
2019-05-03T18:05:09.492Z,77.71
2019-05-03T18:08:14.205Z,76.81
2019-05-03T18:10:49.414Z,77.60
2019-05-03T18:13:19.302Z,78.64
2019-05-03T18:15:49.356Z,78.48
2019-05-03T18:18:20.738Z,79.55
2019-05-03T18:20:50.870Z,79.64
2019-05-03T18:23:24.684Z,81.56
2019-05-03T18:25:55.039Z,81.43
2019-05-03T18:28:25.853Z,82.49
2019-05-03T18:31:05.162Z,82.75
2019-05-03T18:33:36.974Z,81.93
2019-05-03T18:36:08.587Z,82.62
2019-05-03T18:38:40.184Z,83.03
2019-05-03T18:41:14.266Z,82.82
2019-05-03T18:44:02.602Z,83.34
2019-05-03T18:46:55.075Z,84.37
2019-05-03T18:49:25.525Z,84.03
2019-05-03T18:51:55.723Z,83.22
2019-05-03T18:54:28.325Z,83.02
2019-05-03T18:57:02.185Z,82.47
2019-05-03T18:59:35.064Z,82.67
2019-05-03T19:02:07.692Z,82.63
2019-05-03T19:04:51.313Z,83.26
2019-05-03T19:07:41.258Z,84.31
2019-05-03T19:10:40.549Z,83.68
2019-05-03T19:14:04.713Z,83.15
2019-05-03T19:17:11.511Z,83.86
2019-05-03T19:19:49.639Z,82.80
2019-05-03T19:22:20.694Z,82.94
2019-05-03T19:24:54.714Z,83.15
2019-05-03T19:27:48.770Z,83.21
2019-05-03T19:30:17.670Z,84.00
2019-05-03T19:32:58.049Z,82.03
2019-05-03T19:35:39.833Z,82.64
2019-05-03T19:38:07.809Z,84.51
2019-05-03T19:40:39.730Z,83.14
2019-05-03T19:43:15.300Z,82.95
2019-05-03T19:45:46.151Z,82.81
2019-05-03T19:48:18.654Z,83.24
2019-05-03T19:50:51.029Z,82.59
2019-05-03T19:53:48.182Z,81.04
2019-05-03T19:56:25.530Z,79.28
2019-05-03T19:58:59.377Z,78.80
2019-05-03T20:01:39.188Z,78.13
2019-05-03T20:04:35.070Z,77.49
2019-05-03T20:07:42.453Z,77.31
2019-05-03T20:10:14.666Z,78.29
2019-05-03T20:12:46.682Z,77.87
2019-05-03T20:15:16.883Z,79.03
2019-05-03T20:17:59.124Z,79.73
2019-05-03T20:20:20.372Z,79.12
2019-05-03T20:22:50.541Z,80.46
2019-05-03T20:25:20.817Z,80.62
2019-05-03T20:27:55.940Z,80.69
2019-05-03T20:30:26.218Z,79.96
2019-05-03T20:32:56.521Z,80.21
2019-05-03T20:35:26.640Z,79.54
2019-05-03T20:37:56.818Z,83.06
2019-05-03T20:40:26.975Z,80.29
2019-05-03T20:43:09.845Z,80.95
2019-05-03T20:45:57.685Z,78.49
2019-05-03T20:48:27.838Z,79.00
2019-05-03T20:50:58.037Z,78.86
2019-05-03T20:53:28.191Z,79.83
2019-05-03T20:55:58.304Z,79.97
2019-05-03T20:58:28.508Z,80.52
2019-05-03T21:00:58.626Z,80.66
2019-05-03T21:03:28.768Z,80.24
2019-05-03T21:05:58.710Z,80.99
2019-05-03T21:08:28.918Z,82.17
2019-05-03T21:10:59.065Z,82.77
2019-05-03T21:13:39.920Z,82.40
2019-05-03T21:16:17.748Z,83.22
2019-05-03T21:18:53.375Z,82.63
2019-05-03T21:21:42.060Z,77.11
2019-05-03T21:24:24.210Z,77.02
2019-05-03T21:26:54.674Z,76.45
2019-05-03T21:29:25.176Z,77.08
2019-05-03T21:31:55.341Z,78.88
2019-05-03T21:34:26.471Z,79.99
2019-05-03T21:36:56.939Z,79.38
2019-05-03T21:39:28.804Z,80.97
2019-05-03T21:41:58.966Z,79.62
2019-05-03T21:44:32.858Z,80.83
2019-05-03T21:47:31.169Z,76.20
2019-05-03T21:50:01.999Z,76.07
2019-05-03T21:52:40.272Z,76.54
2019-05-03T21:55:14.481Z,77.03
2019-05-03T21:57:47.221Z,76.95
2019-05-03T22:00:17.804Z,77.45
2019-05-03T22:02:49.546Z,76.49
2019-05-03T22:05:19.677Z,75.50
2019-05-03T22:07:49.791Z,74.45
2019-05-03T22:10:20.009Z,72.59
2019-05-03T22:12:50.169Z,73.91
2019-05-03T22:15:39.272Z,73.34
2019-05-03T22:18:18.907Z,73.06
2019-05-03T22:21:11.676Z,72.54
2019-05-03T22:24:04.535Z,71.36
2019-05-03T22:26:52.739Z,71.64
2019-05-03T22:29:25.222Z,73.21
2019-05-03T22:31:55.056Z,73.30
2019-05-03T22:34:25.857Z,73.50
2019-05-03T22:36:56.268Z,73.19
2019-05-03T22:39:26.468Z,74.61
2019-05-03T22:41:56.635Z,74.46
2019-05-03T22:44:31.193Z,74.72
2019-05-03T22:47:01.403Z,73.89
2019-05-03T22:49:31.659Z,72.53
2019-05-03T22:52:04.805Z,71.35
2019-05-03T22:54:34.764Z,69.96
2019-05-03T22:57:05.013Z,69.97
2019-05-03T22:59:36.336Z,69.07
2019-05-03T23:02:06.475Z,69.76
2019-05-03T23:04:36.681Z,69.75
2019-05-03T23:07:07.948Z,69.87
2019-05-03T23:09:38.102Z,70.98
2019-05-03T23:12:09.303Z,70.66
2019-05-03T23:14:39.480Z,72.12
2019-05-03T23:17:09.626Z,72.03
2019-05-03T23:19:44.905Z,73.17
2019-05-03T23:22:24.609Z,72.64
2019-05-03T23:24:55.054Z,71.10
2019-05-03T23:27:25.281Z,70.93
2019-05-03T23:29:55.390Z,69.51
2019-05-03T23:32:25.534Z,70.76
2019-05-03T23:34:55.661Z,72.05
2019-05-03T23:37:25.909Z,71.15
2019-05-03T23:39:55.972Z,72.52
2019-05-03T23:42:26.001Z,73.19
2019-05-03T23:44:56.066Z,74.00
2019-05-03T23:47:40.056Z,74.97
2019-05-03T23:50:13.443Z,75.31
2019-05-03T23:52:45.189Z,75.83
2019-05-03T23:55:35.759Z,76.78
2019-05-03T23:58:05.886Z,75.76
